sensor_id;sensor_type;location;lat;lon;timestamp;pressure;altitude;pressure_sealevel;temperature;humidity
55079;BME280;55187;49.496;6.010;2022-10-22T00:01:26;96990.56;;;12.23;100.00
55079;BME280;55187;49.496;6.010;2022-10-22T00:03:53;96984.88;;;12.26;100.00
55079;BME280;55187;49.496;6.010;2022-10-22T00:06:20;96990.59;;;12.16;100.00
55079;BME280;55187;49.496;6.010;2022-10-22T00:08:46;96978.19;;;12.17;100.00
55079;BME280;55187;49.496;6.010;2022-10-22T00:11:15;96986.34;;;12.15;100.00
55079;BME280;55187;49.496;6.010;2022-10-22T00:13:41;96991.44;;;12.17;100.00
55079;BME280;55187;49.496;6.010;2022-10-22T00:16:08;96995.94;;;12.10;100.00
55079;BME280;55187;49.496;6.010;2022-10-22T00:18:35;97000.84;;;12.13;100.00
55079;BME280;55187;49.496;6.010;2022-10-22T00:21:01;97007.13;;;12.18;100.00
55079;BME280;55187;49.496;6.010;2022-10-22T00:23:31;97016.31;;;12.16;100.00
55079;BME280;55187;49.496;6.010;2022-10-22T00:25:57;97011.03;;;12.16;100.00
55079;BME280;55187;49.496;6.010;2022-10-22T00:28:23;97009.81;;;12.12;100.00
55079;BME280;55187;49.496;6.010;2022-10-22T00:30:57;97010.22;;;12.15;100.00
55079;BME280;55187;49.496;6.010;2022-10-22T00:33:25;97006.34;;;12.11;100.00
55079;BME280;55187;49.496;6.010;2022-10-22T00:35:51;96991.25;;;12.12;100.00
55079;BME280;55187;49.496;6.010;2022-10-22T00:38:18;97008.81;;;12.13;100.00
55079;BME280;55187;49.496;6.010;2022-10-22T00:40:45;97013.88;;;12.14;100.00
55079;BME280;55187;49.496;6.010;2022-10-22T00:43:14;97024.50;;;12.14;100.00
55079;BME280;55187;49.496;6.010;2022-10-22T00:45:42;97019.41;;;12.13;100.00
55079;BME280;55187;49.496;6.010;2022-10-22T00:48:19;97024.91;;;12.11;100.00
55079;BME280;55187;49.496;6.010;2022-10-22T00:50:58;97015.34;;;12.10;100.00
55079;BME280;55187;49.496;6.010;2022-10-22T00:53:34;97018.41;;;12.07;100.00
55079;BME280;55187;49.496;6.010;2022-10-22T00:56:02;97012.72;;;12.04;100.00
55079;BME280;55187;49.496;6.010;2022-10-22T00:58:30;97020.44;;;12.05;100.00
55079;BME280;55187;49.496;6.010;2022-10-22T01:00:59;97032.91;;;11.98;100.00
55079;BME280;55187;49.496;6.010;2022-10-22T01:03:25;97028.44;;;11.99;100.00
55079;BME280;55187;49.496;6.010;2022-10-22T01:05:55;97033.34;;;11.95;100.00
55079;BME280;55187;49.496;6.010;2022-10-22T01:08:37;97040.09;;;11.91;100.00
55079;BME280;55187;49.496;6.010;2022-10-22T01:11:18;97039.06;;;11.85;100.00
55079;BME280;55187;49.496;6.010;2022-10-22T01:14:12;97051.91;;;11.82;100.00
55079;BME280;55187;49.496;6.010;2022-10-22T01:17:07;97050.28;;;11.81;100.00
55079;BME280;55187;49.496;6.010;2022-10-22T01:22:45;97048.47;;;11.68;100.00
55079;BME280;55187;49.496;6.010;2022-10-22T01:25:33;97055.19;;;11.64;100.00
55079;BME280;55187;49.496;6.010;2022-10-22T01:28:22;97056.03;;;11.58;100.00
55079;BME280;55187;49.496;6.010;2022-10-22T01:30:56;97054.22;;;11.58;100.00
55079;BME280;55187;49.496;6.010;2022-10-22T01:33:24;97054.81;;;11.53;100.00
55079;BME280;55187;49.496;6.010;2022-10-22T01:35:52;97050.75;;;11.51;100.00
55079;BME280;55187;49.496;6.010;2022-10-22T01:38:20;97042.81;;;11.51;100.00
55079;BME280;55187;49.496;6.010;2022-10-22T01:40:49;97037.31;;;11.39;100.00
55079;BME280;55187;49.496;6.010;2022-10-22T01:43:16;97041.59;;;11.33;100.00
55079;BME280;55187;49.496;6.010;2022-10-22T01:45:53;97030.78;;;11.35;100.00
55079;BME280;55187;49.496;6.010;2022-10-22T01:57:27;97050.38;;;11.27;100.00
55079;BME280;55187;49.496;6.010;2022-10-22T02:00:08;97049.97;;;11.24;100.00
55079;BME280;55187;49.496;6.010;2022-10-22T02:03:00;97061.16;;;11.19;100.00
55079;BME280;55187;49.496;6.010;2022-10-22T02:08:20;97047.09;;;11.12;100.00
55079;BME280;55187;49.496;6.010;2022-10-22T02:10:49;97055.25;;;11.17;100.00
55079;BME280;55187;49.496;6.010;2022-10-22T02:13:26;97063.19;;;11.10;100.00
55079;BME280;55187;49.496;6.010;2022-10-22T02:15:54;97059.31;;;11.06;100.00
55079;BME280;55187;49.496;6.010;2022-10-22T02:18:27;97065.03;;;11.03;100.00
55079;BME280;55187;49.496;6.010;2022-10-22T02:20:55;97066.44;;;10.99;100.00
55079;BME280;55187;49.496;6.010;2022-10-22T02:23:22;97063.59;;;10.94;100.00
55079;BME280;55187;49.496;6.010;2022-10-22T02:25:55;97069.91;;;10.93;100.00
55079;BME280;55187;49.496;6.010;2022-10-22T02:28:41;97063.78;;;10.86;100.00
55079;BME280;55187;49.496;6.010;2022-10-22T02:31:16;97069.69;;;10.75;100.00
55079;BME280;55187;49.496;6.010;2022-10-22T02:33:48;97065.19;;;10.68;100.00
55079;BME280;55187;49.496;6.010;2022-10-22T02:36:16;97067.63;;;10.63;100.00
55079;BME280;55187;49.496;6.010;2022-10-22T02:38:45;97067.41;;;10.65;100.00
55079;BME280;55187;49.496;6.010;2022-10-22T02:41:13;97076.56;;;10.62;100.00
55079;BME280;55187;49.496;6.010;2022-10-22T02:43:42;97086.53;;;10.54;100.00
55079;BME280;55187;49.496;6.010;2022-10-22T02:46:12;97085.84;;;10.38;100.00
55079;BME280;55187;49.496;6.010;2022-10-22T02:48:38;97090.16;;;10.53;100.00
55079;BME280;55187;49.496;6.010;2022-10-22T02:51:05;97088.47;;;10.32;100.00
55079;BME280;55187;49.496;6.010;2022-10-22T02:53:31;97091.63;;;10.20;100.00
55079;BME280;55187;49.496;6.010;2022-10-22T02:55:58;97091.88;;;10.25;100.00
55079;BME280;55187;49.496;6.010;2022-10-22T02:58:24;97091.03;;;10.18;100.00
55079;BME280;55187;49.496;6.010;2022-10-22T03:00:51;97094.72;;;10.24;100.00
55079;BME280;55187;49.496;6.010;2022-10-22T03:03:17;97096.97;;;10.27;100.00
55079;BME280;55187;49.496;6.010;2022-10-22T03:05:43;97105.50;;;10.22;100.00
55079;BME280;55187;49.496;6.010;2022-10-22T03:08:10;97105.50;;;10.22;100.00
55079;BME280;55187;49.496;6.010;2022-10-22T03:10:37;97107.72;;;10.25;100.00
55079;BME280;55187;49.496;6.010;2022-10-22T03:13:03;97100.75;;;10.11;100.00
55079;BME280;55187;49.496;6.010;2022-10-22T03:15:30;97103.13;;;9.99;100.00
55079;BME280;55187;49.496;6.010;2022-10-22T03:17:56;97103.41;;;10.11;100.00
55079;BME280;55187;49.496;6.010;2022-10-22T03:20:22;97096.81;;;10.00;100.00
55079;BME280;55187;49.496;6.010;2022-10-22T03:22:49;97099.47;;;10.00;100.00
55079;BME280;55187;49.496;6.010;2022-10-22T03:25:19;97115.50;;;9.92;100.00
55079;BME280;55187;49.496;6.010;2022-10-22T03:27:48;97115.09;;;9.95;100.00
55079;BME280;55187;49.496;6.010;2022-10-22T03:30:16;97119.53;;;9.88;100.00
55079;BME280;55187;49.496;6.010;2022-10-22T03:32:42;97118.69;;;9.81;100.00
55079;BME280;55187;49.496;6.010;2022-10-22T03:35:09;97123.56;;;9.84;100.00
55079;BME280;55187;49.496;6.010;2022-10-22T03:37:35;97121.56;;;9.86;100.00
55079;BME280;55187;49.496;6.010;2022-10-22T03:40:04;97121.13;;;9.82;100.00
55079;BME280;55187;49.496;6.010;2022-10-22T03:42:31;97116.44;;;9.84;100.00
55079;BME280;55187;49.496;6.010;2022-10-22T03:44:57;97122.09;;;9.75;100.00
55079;BME280;55187;49.496;6.010;2022-10-22T03:47:24;97122.13;;;9.81;100.00
55079;BME280;55187;49.496;6.010;2022-10-22T03:49:51;97116.66;;;9.83;100.00
55079;BME280;55187;49.496;6.010;2022-10-22T03:52:17;97117.91;;;9.87;100.00
55079;BME280;55187;49.496;6.010;2022-10-22T03:54:44;97114.78;;;9.77;100.00
55079;BME280;55187;49.496;6.010;2022-10-22T03:57:10;97128.84;;;9.84;100.00
55079;BME280;55187;49.496;6.010;2022-10-22T03:59:39;97123.19;;;9.87;100.00
55079;BME280;55187;49.496;6.010;2022-10-22T04:02:06;97123.19;;;9.87;100.00
55079;BME280;55187;49.496;6.010;2022-10-22T04:04:32;97114.81;;;9.83;100.00
55079;BME280;55187;49.496;6.010;2022-10-22T04:06:59;97133.16;;;9.85;100.00
55079;BME280;55187;49.496;6.010;2022-10-22T04:09:25;97134.72;;;9.79;100.00
55079;BME280;55187;49.496;6.010;2022-10-22T04:11:52;97133.16;;;9.85;100.00
55079;BME280;55187;49.496;6.010;2022-10-22T04:14:18;97139.63;;;9.82;100.00
55079;BME280;55187;49.496;6.010;2022-10-22T04:16:44;97145.09;;;9.81;100.00
55079;BME280;55187;49.496;6.010;2022-10-22T04:19:13;97143.44;;;9.73;100.00
55079;BME280;55187;49.496;6.010;2022-10-22T04:21:40;97149.09;;;9.70;100.00
55079;BME280;55187;49.496;6.010;2022-10-22T04:24:06;97151.38;;;9.73;100.00
55079;BME280;55187;49.496;6.010;2022-10-22T04:26:32;97147.25;;;9.71;100.00
55079;BME280;55187;49.496;6.010;2022-10-22T04:28:59;97154.38;;;9.70;100.00
55079;BME280;55187;49.496;6.010;2022-10-22T04:31:26;97151.94;;;9.69;100.00
55079;BME280;55187;49.496;6.010;2022-10-22T04:33:54;97147.22;;;9.64;100.00
55079;BME280;55187;49.496;6.010;2022-10-22T04:36:20;97151.69;;;9.63;100.00
55079;BME280;55187;49.496;6.010;2022-10-22T04:38:52;97155.97;;;9.64;100.00
55079;BME280;55187;49.496;6.010;2022-10-22T04:41:23;97154.94;;;9.65;100.00
55079;BME280;55187;49.496;6.010;2022-10-22T04:43:50;97158.41;;;9.66;100.00
55079;BME280;55187;49.496;6.010;2022-10-22T04:46:16;97154.13;;;9.65;100.00
55079;BME280;55187;49.496;6.010;2022-10-22T04:48:44;97156.91;;;9.57;100.00
55079;BME280;55187;49.496;6.010;2022-10-22T04:51:14;97160.38;;;9.57;100.00
55079;BME280;55187;49.496;6.010;2022-10-22T04:53:41;97156.72;;;9.58;100.00
55079;BME280;55187;49.496;6.010;2022-10-22T04:56:13;97159.31;;;9.52;100.00
55079;BME280;55187;49.496;6.010;2022-10-22T04:58:42;97160.38;;;9.57;100.00
55079;BME280;55187;49.496;6.010;2022-10-22T05:01:15;97159.53;;;9.57;100.00
55079;BME280;55187;49.496;6.010;2022-10-22T05:03:43;97159.94;;;9.54;100.00
55079;BME280;55187;49.496;6.010;2022-10-22T05:06:10;97164.22;;;9.55;100.00
55079;BME280;55187;49.496;6.010;2022-10-22T05:08:37;97167.47;;;9.57;100.00
55079;BME280;55187;49.496;6.010;2022-10-22T05:11:10;97166.03;;;9.54;100.00
55079;BME280;55187;49.496;6.010;2022-10-22T05:13:36;97166.88;;;9.55;100.00
55079;BME280;55187;49.496;6.010;2022-10-22T05:16:03;97176.59;;;9.54;100.00
55079;BME280;55187;49.496;6.010;2022-10-22T05:18:29;97168.44;;;9.49;100.00
55079;BME280;55187;49.496;6.010;2022-10-22T05:20:55;97176.97;;;9.51;100.00
55079;BME280;55187;49.496;6.010;2022-10-22T05:23:22;97168.00;;;9.45;100.00
55079;BME280;55187;49.496;6.010;2022-10-22T05:25:48;97176.53;;;9.48;100.00
55079;BME280;55187;49.496;6.010;2022-10-22T05:28:14;97173.72;;;9.49;100.00
55079;BME280;55187;49.496;6.010;2022-10-22T05:30:40;97180.06;;;9.55;100.00
55079;BME280;55187;49.496;6.010;2022-10-22T05:33:07;97178.66;;;9.59;100.00
55079;BME280;55187;49.496;6.010;2022-10-22T05:35:33;97181.75;;;9.62;100.00
55079;BME280;55187;49.496;6.010;2022-10-22T05:37:59;97182.75;;;9.61;100.00
55079;BME280;55187;49.496;6.010;2022-10-22T05:40:26;97194.28;;;9.54;100.00
55079;BME280;55187;49.496;6.010;2022-10-22T05:42:52;97198.19;;;9.58;100.00
55079;BME280;55187;49.496;6.010;2022-10-22T05:45:18;97200.31;;;9.48;100.00
55079;BME280;55187;49.496;6.010;2022-10-22T05:47:45;97196.91;;;9.54;100.00
55079;BME280;55187;49.496;6.010;2022-10-22T05:50:11;97200.94;;;9.50;100.00
55079;BME280;55187;49.496;6.010;2022-10-22T05:53:44;97197.25;;;9.44;100.00
55079;BME280;55187;49.496;6.010;2022-10-22T05:56:14;97207.25;;;9.27;100.00
55079;BME280;55187;49.496;6.010;2022-10-22T05:58:42;97206.41;;;9.27;100.00
55079;BME280;55187;49.496;6.010;2022-10-22T06:01:17;97219.03;;;9.10;100.00
55079;BME280;55187;49.496;6.010;2022-10-22T06:03:44;97221.19;;;9.21;100.00
55079;BME280;55187;49.496;6.010;2022-10-22T06:06:18;97214.59;;;9.32;100.00
55079;BME280;55187;49.496;6.010;2022-10-22T06:08:48;97222.25;;;9.27;100.00
55079;BME280;55187;49.496;6.010;2022-10-22T06:11:17;97216.88;;;9.35;100.00
55079;BME280;55187;49.496;6.010;2022-10-22T06:13:45;97228.22;;;9.35;100.00
55079;BME280;55187;49.496;6.010;2022-10-22T06:16:12;97230.63;;;9.30;100.00
55079;BME280;55187;49.496;6.010;2022-10-22T06:18:39;97238.97;;;9.12;100.00
55079;BME280;55187;49.496;6.010;2022-10-22T06:21:10;97239.53;;;9.08;100.00
55079;BME280;55187;49.496;6.010;2022-10-22T06:23:38;97239.69;;;9.06;100.00
55079;BME280;55187;49.496;6.010;2022-10-22T06:26:06;97245.75;;;9.00;100.00
55079;BME280;55187;49.496;6.010;2022-10-22T06:28:34;97262.00;;;9.03;100.00
55079;BME280;55187;49.496;6.010;2022-10-22T06:31:02;97268.25;;;9.17;100.00
55079;BME280;55187;49.496;6.010;2022-10-22T06:33:31;97273.88;;;9.29;100.00
55079;BME280;55187;49.496;6.010;2022-10-22T06:36:12;97280.50;;;9.40;100.00
55079;BME280;55187;49.496;6.010;2022-10-22T06:38:40;97276.41;;;9.59;100.00
55079;BME280;55187;49.496;6.010;2022-10-22T06:41:11;97271.25;;;9.94;100.00
55079;BME280;55187;49.496;6.010;2022-10-22T06:43:38;97276.78;;;9.99;100.00
55079;BME280;55187;49.496;6.010;2022-10-22T06:46:07;97276.69;;;10.14;100.00
55079;BME280;55187;49.496;6.010;2022-10-22T06:48:35;97282.22;;;10.19;100.00
55079;BME280;55187;49.496;6.010;2022-10-22T06:51:05;97291.69;;;10.06;100.00
55079;BME280;55187;49.496;6.010;2022-10-22T06:53:37;97282.47;;;10.24;100.00
55079;BME280;55187;49.496;6.010;2022-10-22T06:56:06;97282.97;;;10.34;100.00
55079;BME280;55187;49.496;6.010;2022-10-22T06:58:32;97292.22;;;10.23;100.00
55079;BME280;55187;49.496;6.010;2022-10-22T07:01:00;97288.84;;;10.29;100.00
55079;BME280;55187;49.496;6.010;2022-10-22T07:03:27;97288.66;;;10.31;100.00
55079;BME280;55187;49.496;6.010;2022-10-22T07:05:53;97284.00;;;10.33;100.00
55079;BME280;55187;49.496;6.010;2022-10-22T07:08:20;97290.47;;;10.31;100.00
55079;BME280;55187;49.496;6.010;2022-10-22T07:10:47;97299.03;;;10.33;100.00
55079;BME280;55187;49.496;6.010;2022-10-22T07:13:17;97312.13;;;10.41;100.00
55079;BME280;55187;49.496;6.010;2022-10-22T07:15:54;97315.00;;;10.46;100.00
55079;BME280;55187;49.496;6.010;2022-10-22T07:18:21;97325.81;;;10.51;100.00
55079;BME280;55187;49.496;6.010;2022-10-22T07:20:48;97328.78;;;10.63;100.00
55079;BME280;55187;49.496;6.010;2022-10-22T07:23:15;97322.50;;;10.70;100.00
55079;BME280;55187;49.496;6.010;2022-10-22T07:25:46;97330.28;;;10.79;100.00
55079;BME280;55187;49.496;6.010;2022-10-22T07:28:12;97324.56;;;10.75;100.00
55079;BME280;55187;49.496;6.010;2022-10-22T07:30:40;97334.09;;;10.69;100.00
55079;BME280;55187;49.496;6.010;2022-10-22T07:33:06;97332.00;;;10.58;100.00
55079;BME280;55187;49.496;6.010;2022-10-22T07:35:33;97334.59;;;10.52;100.00
55079;BME280;55187;49.496;6.010;2022-10-22T07:38:00;97340.03;;;10.43;100.00
55079;BME280;55187;49.496;6.010;2022-10-22T07:40:26;97337.72;;;10.34;100.00
55079;BME280;55187;49.496;6.010;2022-10-22T07:42:53;97334.69;;;10.37;100.00
55079;BME280;55187;49.496;6.010;2022-10-22T07:45:19;97349.78;;;10.43;100.00
55079;BME280;55187;49.496;6.010;2022-10-22T07:47:47;97362.09;;;10.57;100.00
55079;BME280;55187;49.496;6.010;2022-10-22T07:50:14;97357.91;;;10.69;100.00
55079;BME280;55187;49.496;6.010;2022-10-22T07:52:41;97357.66;;;10.92;100.00
55079;BME280;55187;49.496;6.010;2022-10-22T07:55:08;97367.78;;;11.17;100.00
55079;BME280;55187;49.496;6.010;2022-10-22T07:57:34;97369.09;;;11.34;100.00
55079;BME280;55187;49.496;6.010;2022-10-22T08:00:06;97372.88;;;11.67;100.00
55079;BME280;55187;49.496;6.010;2022-10-22T08:02:37;97383.56;;;11.93;100.00
55079;BME280;55187;49.496;6.010;2022-10-22T08:05:04;97380.94;;;11.93;100.00
55079;BME280;55187;49.496;6.010;2022-10-22T08:07:31;97383.22;;;12.03;100.00
55079;BME280;55187;49.496;6.010;2022-10-22T08:09:57;97386.69;;;12.30;100.00
55079;BME280;55187;49.496;6.010;2022-10-22T08:12:23;97383.47;;;12.68;100.00
55079;BME280;55187;49.496;6.010;2022-10-22T08:14:50;97390.00;;;12.72;100.00
55079;BME280;55187;49.496;6.010;2022-10-22T08:17:16;97386.06;;;13.01;100.00
55079;BME280;55187;49.496;6.010;2022-10-22T08:19:43;97394.47;;;13.70;100.00
55079;BME280;55187;49.496;6.010;2022-10-22T08:22:09;97405.81;;;14.86;100.00
55079;BME280;55187;49.496;6.010;2022-10-22T08:24:35;97404.50;;;15.14;99.60
55079;BME280;55187;49.496;6.010;2022-10-22T08:27:01;97402.56;;;14.27;99.58
55079;BME280;55187;49.496;6.010;2022-10-22T08:29:28;97405.91;;;12.92;100.00
55079;BME280;55187;49.496;6.010;2022-10-22T08:31:54;97414.28;;;12.56;100.00
55079;BME280;55187;49.496;6.010;2022-10-22T08:34:20;97404.91;;;12.73;100.00
55079;BME280;55187;49.496;6.010;2022-10-22T08:36:52;97412.63;;;13.01;100.00
55079;BME280;55187;49.496;6.010;2022-10-22T08:39:18;97410.81;;;12.89;100.00
55079;BME280;55187;49.496;6.010;2022-10-22T08:42:06;97416.31;;;14.49;97.10
55079;BME280;55187;49.496;6.010;2022-10-22T08:45:06;97415.47;;;13.33;100.00
55079;BME280;55187;49.496;6.010;2022-10-22T08:48:00;97411.81;;;15.80;96.12
55079;BME280;55187;49.496;6.010;2022-10-22T08:50:42;97410.91;;;14.31;96.34
55079;BME280;55187;49.496;6.010;2022-10-22T08:53:14;97418.41;;;14.15;98.71
55079;BME280;55187;49.496;6.010;2022-10-22T08:55:41;97424.09;;;14.82;95.19
55079;BME280;55187;49.496;6.010;2022-10-22T08:58:20;97425.69;;;15.70;94.93
55079;BME280;55187;49.496;6.010;2022-10-22T09:00:57;97442.66;;;16.25;86.72
55079;BME280;55187;49.496;6.010;2022-10-22T09:03:33;97426.84;;;14.37;95.06
55079;BME280;55187;49.496;6.010;2022-10-22T09:06:13;97429.06;;;16.56;86.98
55079;BME280;55187;49.496;6.010;2022-10-22T09:08:42;97429.19;;;14.59;92.60
55079;BME280;55187;49.496;6.010;2022-10-22T09:11:33;97432.25;;;13.85;98.55
55079;BME280;55187;49.496;6.010;2022-10-22T09:14:00;97424.47;;;14.29;96.61
55079;BME280;55187;49.496;6.010;2022-10-22T09:16:53;97439.69;;;13.70;100.00
55079;BME280;55187;49.496;6.010;2022-10-22T09:19:39;97440.63;;;13.89;99.75
55079;BME280;55187;49.496;6.010;2022-10-22T09:25:01;97438.63;;;13.78;100.00
55079;BME280;55187;49.496;6.010;2022-10-22T09:27:33;97431.56;;;14.03;96.94
55079;BME280;55187;49.496;6.010;2022-10-22T09:30:00;97435.94;;;13.78;98.72
55079;BME280;55187;49.496;6.010;2022-10-22T09:32:27;97433.69;;;13.88;97.92
55079;BME280;55187;49.496;6.010;2022-10-22T09:34:56;97435.88;;;13.98;99.02
55079;BME280;55187;49.496;6.010;2022-10-22T09:37:28;97440.25;;;15.31;93.07
55079;BME280;55187;49.496;6.010;2022-10-22T09:39:59;97434.84;;;16.23;85.56
55079;BME280;55187;49.496;6.010;2022-10-22T09:42:45;97438.91;;;15.96;87.18
55079;BME280;55187;49.496;6.010;2022-10-22T09:45:18;97441.63;;;15.15;90.08
55079;BME280;55187;49.496;6.010;2022-10-22T09:47:45;97448.34;;;16.28;86.73
55079;BME280;55187;49.496;6.010;2022-10-22T09:50:25;97447.34;;;15.19;90.19
55079;BME280;55187;49.496;6.010;2022-10-22T09:53:09;97449.13;;;16.89;83.37
55079;BME280;55187;49.496;6.010;2022-10-22T09:55:39;97449.38;;;15.60;87.64
55079;BME280;55187;49.496;6.010;2022-10-22T09:58:12;97452.13;;;15.90;87.32
55079;BME280;55187;49.496;6.010;2022-10-22T10:00:44;97459.00;;;15.98;86.77
55079;BME280;55187;49.496;6.010;2022-10-22T10:03:26;97460.03;;;14.35;92.28
55079;BME280;55187;49.496;6.010;2022-10-22T10:05:55;97456.16;;;13.99;98.11
55079;BME280;55187;49.496;6.010;2022-10-22T10:08:22;97461.03;;;14.02;98.48
55079;BME280;55187;49.496;6.010;2022-10-22T10:11:05;97465.47;;;14.15;98.42
55079;BME280;55187;49.496;6.010;2022-10-22T10:16:34;97464.66;;;16.08;88.71
55079;BME280;55187;49.496;6.010;2022-10-22T10:19:22;97473.00;;;16.42;84.37
55079;BME280;55187;49.496;6.010;2022-10-22T10:22:03;97468.91;;;17.12;83.36
55079;BME280;55187;49.496;6.010;2022-10-22T10:24:55;97473.63;;;16.56;84.27
55079;BME280;55187;49.496;6.010;2022-10-22T10:27:37;97460.03;;;15.23;91.49
55079;BME280;55187;49.496;6.010;2022-10-22T10:30:16;97473.84;;;14.63;94.89
55079;BME280;55187;49.496;6.010;2022-10-22T10:33:07;97474.47;;;14.59;96.50
55079;BME280;55187;49.496;6.010;2022-10-22T10:36:02;97473.00;;;14.24;97.06
55079;BME280;55187;49.496;6.010;2022-10-22T10:38:45;97480.97;;;14.31;97.89
55079;BME280;55187;49.496;6.010;2022-10-22T10:41:31;97474.91;;;14.81;97.37
55079;BME280;55187;49.496;6.010;2022-10-22T10:44:14;97476.44;;;15.82;92.32
55079;BME280;55187;49.496;6.010;2022-10-22T10:49:34;97477.06;;;16.75;85.30
55079;BME280;55187;49.496;6.010;2022-10-22T10:52:14;97481.81;;;16.12;87.65
55079;BME280;55187;49.496;6.010;2022-10-22T10:54:53;97483.34;;;15.71;90.08
55079;BME280;55187;49.496;6.010;2022-10-22T10:57:33;97481.22;;;15.55;92.34
55079;BME280;55187;49.496;6.010;2022-10-22T11:00:09;97478.91;;;15.40;93.67
55079;BME280;55187;49.496;6.010;2022-10-22T11:02:59;97478.91;;;15.40;92.74
55079;BME280;55187;49.496;6.010;2022-10-22T11:05:51;97474.41;;;15.16;96.06
55079;BME280;55187;49.496;6.010;2022-10-22T11:08:37;97466.09;;;15.30;95.56
55079;BME280;55187;49.496;6.010;2022-10-22T11:11:12;97477.97;;;15.09;97.72
55079;BME280;55187;49.496;6.010;2022-10-22T11:13:55;97470.75;;;15.17;95.88
55079;BME280;55187;49.496;6.010;2022-10-22T11:16:37;97473.34;;;15.23;94.29
55079;BME280;55187;49.496;6.010;2022-10-22T11:21:44;97466.59;;;15.21;92.55
55079;BME280;55187;49.496;6.010;2022-10-22T11:24:29;97470.38;;;15.31;96.88
55079;BME280;55187;49.496;6.010;2022-10-22T11:29:38;97468.41;;;15.45;89.64
55079;BME280;55187;49.496;6.010;2022-10-22T11:32:13;97478.16;;;15.77;93.12
55079;BME280;55187;49.496;6.010;2022-10-22T11:34:46;97470.25;;;15.63;93.88
55079;BME280;55187;49.496;6.010;2022-10-22T11:37:15;97477.09;;;15.78;92.23
55079;BME280;55187;49.496;6.010;2022-10-22T11:39:48;97477.41;;;15.88;86.61
55079;BME280;55187;49.496;6.010;2022-10-22T11:42:21;97490.81;;;16.00;91.60
55079;BME280;55187;49.496;6.010;2022-10-22T11:45:01;97483.38;;;16.20;85.89
55079;BME280;55187;49.496;6.010;2022-10-22T11:47:34;97481.03;;;16.42;88.71
55079;BME280;55187;49.496;6.010;2022-10-22T11:50:21;97484.16;;;16.39;92.87
55079;BME280;55187;49.496;6.010;2022-10-22T11:53:01;97484.56;;;16.85;88.66
55079;BME280;55187;49.496;6.010;2022-10-22T11:55:42;97473.56;;;16.74;82.38
55079;BME280;55187;49.496;6.010;2022-10-22T11:58:28;97476.31;;;16.98;87.23
55079;BME280;55187;49.496;6.010;2022-10-22T12:06:57;97475.16;;;17.29;88.39
55079;BME280;55187;49.496;6.010;2022-10-22T12:09:25;97473.56;;;17.05;91.50
55079;BME280;55187;49.496;6.010;2022-10-22T12:12:12;97469.84;;;16.64;92.34
55079;BME280;55187;49.496;6.010;2022-10-22T12:14:59;97468.53;;;16.96;92.36
55079;BME280;55187;49.496;6.010;2022-10-22T12:17:27;97472.03;;;17.20;90.12
55079;BME280;55187;49.496;6.010;2022-10-22T12:20:11;97469.47;;;17.37;82.90
55079;BME280;55187;49.496;6.010;2022-10-22T12:22:39;97469.22;;;17.15;86.12
55079;BME280;55187;49.496;6.010;2022-10-22T12:25:16;97461.09;;;16.98;85.48
55079;BME280;55187;49.496;6.010;2022-10-22T12:27:43;97465.59;;;16.86;88.88
55079;BME280;55187;49.496;6.010;2022-10-22T12:30:23;97468.44;;;17.03;77.55
55079;BME280;55187;49.496;6.010;2022-10-22T12:32:52;97461.69;;;17.01;80.21
55079;BME280;55187;49.496;6.010;2022-10-22T12:35:23;97461.78;;;17.17;80.20
55079;BME280;55187;49.496;6.010;2022-10-22T12:37:51;97465.75;;;17.15;78.98
55079;BME280;55187;49.496;6.010;2022-10-22T12:40:24;97459.72;;;17.19;76.86
55079;BME280;55187;49.496;6.010;2022-10-22T12:42:54;97444.53;;;17.72;76.13
55079;BME280;55187;49.496;6.010;2022-10-22T12:45:27;97451.50;;;17.73;78.07
55079;BME280;55187;49.496;6.010;2022-10-22T12:48:00;97448.03;;;17.61;79.88
55079;BME280;55187;49.496;6.010;2022-10-22T12:50:33;97450.94;;;17.59;80.32
55079;BME280;55187;49.496;6.010;2022-10-22T12:53:19;97449.53;;;17.69;80.46
55079;BME280;55187;49.496;6.010;2022-10-22T12:55:50;97457.34;;;17.70;78.04
55079;BME280;55187;49.496;6.010;2022-10-22T12:58:19;97445.84;;;17.23;77.07
55079;BME280;55187;49.496;6.010;2022-10-22T13:00:47;97438.69;;;16.57;81.24
55079;BME280;55187;49.496;6.010;2022-10-22T13:03:29;97450.53;;;16.62;81.10
55079;BME280;55187;49.496;6.010;2022-10-22T13:05:55;97450.03;;;16.41;81.41
55079;BME280;55187;49.496;6.010;2022-10-22T13:08:26;97456.38;;;16.40;78.98
55079;BME280;55187;49.496;6.010;2022-10-22T13:10:53;97452.91;;;16.40;81.78
55079;BME280;55187;49.496;6.010;2022-10-22T13:13:38;97452.81;;;16.46;81.12
55079;BME280;55187;49.496;6.010;2022-10-22T13:16:21;97451.03;;;16.40;81.58
55079;BME280;55187;49.496;6.010;2022-10-22T13:18:51;97446.81;;;16.21;80.53
55079;BME280;55187;49.496;6.010;2022-10-22T13:21:25;97448.25;;;16.05;80.82
55079;BME280;55187;49.496;6.010;2022-10-22T13:23:54;97442.94;;;15.86;81.97
55079;BME280;55187;49.496;6.010;2022-10-22T13:26:21;97443.81;;;15.62;84.38
55079;BME280;55187;49.496;6.010;2022-10-22T13:28:53;97445.13;;;15.52;85.47
55079;BME280;55187;49.496;6.010;2022-10-22T13:31:24;97441.28;;;15.30;88.01
55079;BME280;55187;49.496;6.010;2022-10-22T13:33:56;97437.38;;;15.32;85.92
55079;BME280;55187;49.496;6.010;2022-10-22T13:36:23;97435.44;;;15.40;87.83
55079;BME280;55187;49.496;6.010;2022-10-22T13:38:50;97433.06;;;15.31;88.24
55079;BME280;55187;49.496;6.010;2022-10-22T13:41:25;97431.94;;;15.21;88.63
55079;BME280;55187;49.496;6.010;2022-10-22T13:43:53;97433.09;;;15.06;90.49
55079;BME280;55187;49.496;6.010;2022-10-22T13:46:21;97429.75;;;15.11;90.03
55079;BME280;55187;49.496;6.010;2022-10-22T13:48:49;97432.28;;;15.06;92.86
55079;BME280;55187;49.496;6.010;2022-10-22T13:54:09;97437.66;;;14.74;93.75
55079;BME280;55187;49.496;6.010;2022-10-22T13:56:39;97437.72;;;14.93;93.03